DW7076 Floda SE current weather conditions

sailwx.info

Wind from 167 at 1 knots gusting 6

Air temperature 0.6° C
Dewpoint 0.1° C

Last reported at 2015-Jan-29 09:46 UTC.
Time now 2015-Jan-29 10:24 UTC

Location: N 57°49' E 012°21'.
View on Google Maps.

See reports from other nearby stations

  
Tides and Currents Weather Stations Pressure Air Temp Water Temp Dewpoint Dewpoint Depression Visibility Wind Speed Wind Dir Waves Ship Positions
date/time (UTC)wind fromknots sea level pressurealtimeterstation pressurevisibilityair tempwater tempwave heightnotes
2015-Jan-29 09:46 167 1 gusting 6 0.6
2015-Jan-29 09:36 183 1 gusting 7 0.6
2015-Jan-29 09:26 148 0 gusting 5 0.6
2015-Jan-29 09:16 165 1 gusting 5 0.6
2015-Jan-29 09:06 143 0 gusting 2 0.6
2015-Jan-29 08:56 178 1 gusting 5 0.6
2015-Jan-29 08:46 117 0 gusting 2 0.6
2015-Jan-29 08:36 182 1 gusting 5 0.6
2015-Jan-29 08:26 185 1 gusting 4 0.6
2015-Jan-29 08:16 156 0 gusting 6 0.6
2015-Jan-29 08:06 189 2 gusting 6 0.6
2015-Jan-29 07:56 155 1 gusting 5 0.6
2015-Jan-29 07:46 166 1 gusting 4 0.6
2015-Jan-29 07:36 200 1 gusting 6 0.6
2015-Jan-29 07:26 157 2 gusting 6 0.6
2015-Jan-29 07:16 163 1 gusting 6 0.6
2015-Jan-29 07:06 173 2 gusting 6 0.6
2015-Jan-29 06:56 178 1 gusting 6 0.6
2015-Jan-29 06:46 192 0 gusting 8 1.1
2015-Jan-29 05:46 201 4 gusting 10 1.1
2015-Jan-29 05:36 181 5 gusting 12 1.1
2015-Jan-29 05:26 250 5 gusting 11 1.1
2015-Jan-29 05:16 151 1 gusting 10 1.1
2015-Jan-29 05:06 180 5 gusting 11 1.1
2015-Jan-29 04:56 191 4 gusting 12 1.1
2015-Jan-29 04:46 109 2 gusting 8 1.1
2015-Jan-29 04:36 293 2 gusting 7 1.1
2015-Jan-29 04:26 156 2 gusting 8 1.1
2015-Jan-29 04:16 160 1 gusting 6 0.6
2015-Jan-29 04:06 202 2 gusting 10 0.6
2015-Jan-29 03:56 177 0 gusting 4 0.6
2015-Jan-29 03:46 187 0 gusting 4 0.6
2015-Jan-29 03:36 132 1 gusting 4 0.6
2015-Jan-29 03:26 138 0.6
2015-Jan-29 03:16 136 0 gusting 2 0.6
2015-Jan-29 03:06 199 0 gusting 1 0.6
2015-Jan-29 02:56 236 0 gusting 4 0.6
2015-Jan-29 02:46 170 0 gusting 6 0.6
2015-Jan-29 02:36 186 2 gusting 6 1.1
2015-Jan-29 02:26 152 2 gusting 6 1.1
2015-Jan-29 02:16 172 0 gusting 10 1.1
2015-Jan-29 02:06 127 3 gusting 12 1.1
2015-Jan-29 01:56 230 1 gusting 7 1.7
2015-Jan-29 01:46 139 0 gusting 10 1.7
2015-Jan-29 01:36 154 2 gusting 7 1.7
2015-Jan-29 01:26 228 2 gusting 8 1.7
2015-Jan-29 01:16 181 6 gusting 13 1.7
2015-Jan-29 01:06 216 1 gusting 7 1.7
2015-Jan-29 00:56 168 0 gusting 6 2.2
2015-Jan-29 00:46 184 2 gusting 10 2.2
2015-Jan-29 00:36 140 5 gusting 10 2.2
2015-Jan-29 00:26 154 2 gusting 8 2.2
2015-Jan-29 00:16 163 2 gusting 8 2.2
2015-Jan-29 00:06 168 3 gusting 10 2.2
2015-Jan-28 23:56 180 6 gusting 12 2.2
2015-Jan-28 23:46 172 1 gusting 7 1.7
2015-Jan-28 23:36 138 2 gusting 5 1.1
2015-Jan-28 23:26 150 1 gusting 7 1.1
2015-Jan-28 23:16 130 2 gusting 7 0.6
2015-Jan-28 23:06 151 2 gusting 6 0.6
2015-Jan-28 22:56 205 2 gusting 6 0.6
2015-Jan-28 22:46 183 1 gusting 7 0.6
2015-Jan-28 22:36 173 1 gusting 10 0.6
2015-Jan-28 22:26 169 3 gusting 13 0.6
2015-Jan-28 22:16 157 4 gusting 12 0.6
2015-Jan-28 22:06 167 6 gusting 13 0.6
2015-Jan-28 21:56 157 2 gusting 10 0.6
2015-Jan-28 21:46 160 2 gusting 8 0.6
2015-Jan-28 21:36 155 2 gusting 11 0.6
2015-Jan-28 21:26 171 3 gusting 12 1.1
2015-Jan-28 21:16 141 4 gusting 11 1.1
2015-Jan-28 21:06 173 6 gusting 13 1.1
2015-Jan-28 20:56 189 3 gusting 10 1.1
2015-Jan-28 20:46 184 5 gusting 13 1.1
2015-Jan-28 20:36 160 6 gusting 13 1.1
2015-Jan-28 20:26 189 4 gusting 10 1.1
2015-Jan-28 20:16 150 4 gusting 13 1.7
2015-Jan-28 20:06 141 4 gusting 10 1.7
2015-Jan-28 19:56 152 6 gusting 13 1.7
2015-Jan-28 19:46 170 4 gusting 13 1.7
2015-Jan-28 19:36 168 3 gusting 11 1.7
2015-Jan-28 19:26 135 4 gusting 10 1.7
2015-Jan-28 19:16 174 5 gusting 19 1.7
2015-Jan-28 19:06 168 4 gusting 17 2.2
2015-Jan-28 18:56 160 5 gusting 13 2.2
2015-Jan-28 18:46 174 7 gusting 19 2.2
2015-Jan-28 18:36 163 6 gusting 15 2.2
2015-Jan-28 18:26 161 5 gusting 17 2.2
2015-Jan-28 18:16 173 1 gusting 8 2.2
2015-Jan-28 18:06 164 6 gusting 12 2.2
2015-Jan-28 17:56 151 4 gusting 13 2.2
2015-Jan-28 17:46 149 6 gusting 20 2.2
2015-Jan-28 17:36 163 6 gusting 13 2.8
2015-Jan-28 17:26 179 6 gusting 17 2.8
2015-Jan-28 17:16 173 5 gusting 17 2.8
2015-Jan-28 17:06 167 6 gusting 15 2.8
2015-Jan-28 16:56 175 6 gusting 15 2.8
2015-Jan-28 16:46 169 6 gusting 17 2.8
2015-Jan-28 16:36 157 5 gusting 10 2.8
2015-Jan-28 16:26 147 4 gusting 12 2.8
2015-Jan-28 16:16 161 8 gusting 19 2.8
2015-Jan-28 16:06 158 4 gusting 18 2.8
2015-Jan-28 15:56 159 6 gusting 18 2.8
2015-Jan-28 15:46 189 6 gusting 17 2.8
2015-Jan-28 15:36 163 7 gusting 18 2.8
2015-Jan-28 15:26 174 7 gusting 15 2.8
2015-Jan-28 15:16 182 6 gusting 17 2.8
2015-Jan-28 15:06 164 7 gusting 14 2.8
2015-Jan-28 14:56 151 6 gusting 15 2.8
2015-Jan-28 14:46 175 6 gusting 17 2.8
2015-Jan-28 14:36 115 6 gusting 15 3.3
2015-Jan-28 14:26 206 6 gusting 17 3.3
2015-Jan-28 14:16 172 3 gusting 15 3.3
2015-Jan-28 14:06 167 6 gusting 13 2.8
2015-Jan-28 13:56 154 5 gusting 11 3.3
2015-Jan-28 13:46 148 3 gusting 13 3.3
2015-Jan-28 13:36 183 6 gusting 17 3.3
2015-Jan-28 13:26 181 6 gusting 15 3.3
2015-Jan-28 13:16 179 5 gusting 15 3.3
2015-Jan-28 13:06 173 6 gusting 12 3.3
2015-Jan-28 12:56 141 4 gusting 17 3.3
2015-Jan-28 12:46 163 6 gusting 14 3.3
2015-Jan-28 12:36 152 6 gusting 13 3.3
2015-Jan-28 12:26 174 5 gusting 14 3.3
2015-Jan-28 12:16 110 4 gusting 12 3.3
2015-Jan-28 12:06 158 5 gusting 11 3.3
2015-Jan-28 11:56 181 4 gusting 17 3.3
2015-Jan-28 11:46 168 7 gusting 19 3.3
2015-Jan-28 11:36 156 5 gusting 17 3.3
2015-Jan-28 11:26 175 5 gusting 12 3.3
2015-Jan-28 11:16 163 5 gusting 12 3.3
2015-Jan-28 11:06 183 5 gusting 17 3.3
2015-Jan-28 10:56 156 4 gusting 15 3.3
2015-Jan-28 10:46 155 6 gusting 13 3.3
2015-Jan-28 10:36 158 3 gusting 7 3.3
2015-Jan-28 10:26 175 4 gusting 10 3.3
2015-Jan-28 10:16 168 5 gusting 12 3.3
2015-Jan-28 10:06 171 4 gusting 15 3.3
2015-Jan-28 09:56 180 1 gusting 13 3.3
2015-Jan-28 09:46 187 2 gusting 13 3.3
2015-Jan-28 09:36 171 4 gusting 10 3.3
2015-Jan-28 09:26 156 5 gusting 10 3.3
2015-Jan-28 09:16 166 2 gusting 10 3.3
2015-Jan-28 09:06 197 4 gusting 12 3.3
2015-Jan-28 08:56 152 2 gusting 10 3.3
2015-Jan-28 08:46 159 4 gusting 13 3.3
2015-Jan-28 08:36 164 2 gusting 11 3.3
2015-Jan-28 08:26 191 3 gusting 10 3.3
2015-Jan-28 08:16 158 4 gusting 10 3.3
2015-Jan-28 08:06 209 2 gusting 10 3.3
2015-Jan-28 07:56 167 4 gusting 10 3.3
2015-Jan-28 07:46 169 3 gusting 8 3.3
2015-Jan-28 07:36 161 2 gusting 7 3.3
2015-Jan-28 07:26 154 3 gusting 8 3.3
2015-Jan-28 07:16 152 1 gusting 6 3.3
2015-Jan-28 07:06 148 2 gusting 10 3.3
2015-Jan-28 06:56 156 2 gusting 7 3.3
2015-Jan-28 06:46 173 2 gusting 8 3.3
2015-Jan-28 05:46 182 2 gusting 5 3.3
2015-Jan-28 05:36 153 1 gusting 6 2.8
2015-Jan-28 05:26 217 1 gusting 7 2.8
2015-Jan-28 05:16 147 1 gusting 10 2.8
2015-Jan-28 05:06 190 3 gusting 10 2.8
2015-Jan-28 04:56 143 1 gusting 8 2.8
2015-Jan-28 04:46 170 1 gusting 7 2.8
2015-Jan-28 04:36 228 2 gusting 12 2.8
2015-Jan-28 04:26 173 2 gusting 11 2.8
2015-Jan-28 04:16 198 1 gusting 5 2.8
2015-Jan-28 04:06 130 2 gusting 6 2.8
2015-Jan-28 03:56 239 1 gusting 7 2.8
2015-Jan-28 03:46 279 1 gusting 10 2.8
2015-Jan-28 03:36 116 2 gusting 10 2.8
2015-Jan-28 03:26 146 0 gusting 7 3.3
2015-Jan-28 03:16 183 2 gusting 7 2.8
2015-Jan-28 03:06 159 2 gusting 8 2.8
2015-Jan-28 02:56 157 2 gusting 8 2.8
2015-Jan-28 02:46 209 1 gusting 5 2.8
2015-Jan-28 02:36 109 0 gusting 2 2.8
2015-Jan-28 02:26 148 0 gusting 4 2.8
2015-Jan-28 02:16 140 2.2
2015-Jan-28 02:06 154 0 gusting 2 2.2
2015-Jan-28 01:56 123 0 gusting 2 2.2
2015-Jan-28 01:46 118 0 gusting 5 2.2
2015-Jan-28 01:36 269 0 gusting 2 2.2
2015-Jan-28 01:26 191 0 gusting 2 2.2
2015-Jan-28 01:16 252 2 gusting 5 1.7
2015-Jan-28 01:06 153 2 gusting 5 1.7
2015-Jan-28 00:56 127 0 gusting 5 1.7
2015-Jan-28 00:46 169 1 gusting 6 1.7
2015-Jan-28 00:36 168 1 gusting 2 1.1
2015-Jan-28 00:26 358 1.1
2015-Jan-28 00:16 1.1
2015-Jan-28 00:06 205 2 gusting 2 1.1
2015-Jan-27 23:56 117 0 gusting 2 1.1
2015-Jan-27 23:46 196 0 gusting 4 0.6
2015-Jan-27 23:36 209 0.6
2015-Jan-27 23:26 181 0 gusting 6 0.6
2015-Jan-27 23:16 162 2 gusting 6 0.6
2015-Jan-27 23:06 158 1 gusting 2 -0.0
2015-Jan-27 22:56 175 -0.0
2015-Jan-27 22:46 194 -0.0
2015-Jan-27 22:36 124 0 gusting 2 -0.0
2015-Jan-27 22:26 150 -0.6
2015-Jan-27 22:16 150 0 gusting 1 -0.6
2015-Jan-27 22:06 155 -0.6
2015-Jan-27 21:56 155 0 gusting 2 -0.6
2015-Jan-27 21:46 155 -0.6
2015-Jan-27 21:36 165 0 gusting 2 -0.6
2015-Jan-27 21:26 148 0 gusting 2 -0.6
2015-Jan-27 21:16 200 1 gusting 5 -0.6
2015-Jan-27 21:06 172 -0.6
2015-Jan-27 20:56 192 0 gusting 2 -0.6
2015-Jan-27 20:46 163 1 gusting 4 -0.6
2015-Jan-27 20:36 177 -1.1
2015-Jan-27 20:26 169 0 gusting 2 -1.1
2015-Jan-27 20:16 171 1 gusting 4 -1.1
2015-Jan-27 20:06 159 0 gusting 1 -1.1
2015-Jan-27 19:56 159 -1.1
2015-Jan-27 19:46 159 0 gusting 1 -1.1
2015-Jan-27 19:36 159 -1.1
2015-Jan-27 19:26 159 0 gusting 4 -1.1
2015-Jan-27 19:16 158 0 gusting 2 -1.1
2015-Jan-27 19:06 151 1 gusting 4 -0.6
2015-Jan-27 18:56 182 -0.6
2015-Jan-27 18:46 176 1 gusting 4 -0.6
2015-Jan-27 18:36 179 1 gusting 2 -0.6
2015-Jan-27 18:26 203 0 gusting 2 -0.6
2015-Jan-27 18:16 202 -0.6
2015-Jan-27 18:06 206 -0.6
2015-Jan-27 17:56 181 1 gusting 5 -0.6
2015-Jan-27 17:46 223 0 gusting 4 -0.6
2015-Jan-27 17:36 114 0 gusting 2 -0.6
2015-Jan-27 17:26 134 -0.6
2015-Jan-27 17:16 145 0 gusting 2 -0.0
2015-Jan-27 17:06 195 -0.0
2015-Jan-27 16:56 156 0 gusting 4 -0.0
2015-Jan-27 16:46 212 0 gusting 2 -0.0
2015-Jan-27 16:36 211 0 gusting 2 -0.0
2015-Jan-27 16:26 220 -0.0
2015-Jan-27 16:16 220 -0.0
2015-Jan-27 16:06 220 -0.0
2015-Jan-27 15:56 220 -0.0
2015-Jan-27 15:46 220 -0.0
2015-Jan-27 15:36 220 -0.0
2015-Jan-27 15:26 300 -0.0
2015-Jan-27 15:16 300 0.6
2015-Jan-27 15:06 300 0 gusting 1 0.6
2015-Jan-27 14:56 300 0 gusting 2 0.6
2015-Jan-27 14:46 300 0 gusting 2 0.6
2015-Jan-27 14:36 300 0 gusting 2 0.6
2015-Jan-27 14:26 301 1 gusting 5 0.6
2015-Jan-27 14:16 303 0.6
2015-Jan-27 14:06 303 1 gusting 2 0.6
2015-Jan-27 13:56 318 1 gusting 2 0.6
2015-Jan-27 13:46 324 0 gusting 4 0.6
2015-Jan-27 13:36 313 1 gusting 2 0.6
2015-Jan-27 13:26 327 1 gusting 2 0.6
2015-Jan-27 13:16 327 0.6
2015-Jan-27 13:06 317 0.6
2015-Jan-27 12:56 300 0.6
2015-Jan-27 12:46 302 2 gusting 4 0.6
2015-Jan-27 12:36 040 0.6
2015-Jan-27 12:26 040 0.6
2015-Jan-27 12:16 040 0.6
2015-Jan-27 12:06 309 0 gusting 2 0.6
2015-Jan-27 11:56 310 0 gusting 2 0.6
2015-Jan-27 11:46 294 0.6
2015-Jan-27 11:36 018 0 gusting 2 0.6
2015-Jan-27 11:26 300 1 gusting 6 0.6
2015-Jan-27 11:16 324 1 gusting 6 0.6
2015-Jan-27 11:06 292 1 gusting 4 0.6
2015-Jan-27 10:56 294 1 gusting 4 0.6
2015-Jan-27 10:46 350 1 gusting 7 0.6
2015-Jan-27 10:36 320 0 gusting 6 0.6
2015-Jan-27 10:26 319 1 gusting 4 0.6
2015-Jan-27 10:16 018 0.6
2015-Jan-27 10:06 010 0 gusting 4 0.6